Time;durP1;ratioP1;P1;durP2;ratioP2;P2;SDS_P1;SDS_P2;PMS_P1;PMS_P2;Temp;Humidity;BMP_temperature;BMP_pressure;BME280_temperature;BME280_humidity;BME280_pressure;Samples;Min_cycle;Max_cycle;Signal;HPM_P1;HPM_P2
2023/01/05 00:01:13;;;;;;;20.20;2.90;;;11.50;99.90;;;;;;5075966;28;20166;-79
2023/01/05 00:03:39;;;;;;;41.83;4.57;;;11.60;99.90;;;;;;5075884;28;20694;-78
2023/01/05 00:06:07;;;;;;;25.20;4.82;;;11.60;99.90;;;;;;5075615;28;20713;-79
2023/01/05 00:08:32;;;;;;;20.75;3.75;;;11.60;99.90;;;;;;5075724;28;20162;-79
2023/01/05 00:22:29;;;;;;;24.52;5.05;;;11.70;99.90;;;;;;5076634;28;20595;-79
2023/01/05 00:25:03;;;;;;;25.25;3.88;;;11.70;99.90;;;;;;5075024;28;20305;-78
2023/01/05 00:27:29;;;;;;;24.83;3.80;;;11.70;99.90;;;;;;5075202;28;20174;-79
2023/01/05 00:29:55;;;;;;;22.33;3.78;;;11.70;99.90;;;;;;5075213;28;20201;-79
2023/01/05 00:32:21;;;;;;;20.80;4.28;;;11.70;99.90;;;;;;5075017;28;20682;-78
2023/01/05 00:34:47;;;;;;;31.88;4.03;;;11.80;99.90;;;;;;5075017;28;20265;-80
2023/01/05 00:37:13;;;;;;;18.70;4.57;;;11.80;99.90;;;;;;5073949;28;20170;-79
2023/01/05 00:39:38;;;;;;;20.05;4.22;;;11.80;99.90;;;;;;5074998;28;20170;-79
2023/01/05 00:42:04;;;;;;;23.50;3.15;;;11.80;99.90;;;;;;5075164;28;20171;-79
2023/01/05 00:44:30;;;;;;;23.63;4.13;;;11.80;99.90;;;;;;5074990;28;20198;-79
2023/01/05 00:46:55;;;;;;;26.73;3.20;;;11.80;99.90;;;;;;5073762;28;20186;-79
2023/01/05 00:49:21;;;;;;;23.80;3.88;;;11.80;99.90;;;;;;5075329;28;20619;-78
2023/01/05 00:51:47;;;;;;;23.73;4.57;;;11.70;99.90;;;;;;5075527;28;20205;-79
2023/01/05 00:54:12;;;;;;;21.73;3.95;;;11.70;99.90;;;;;;5073519;28;20240;-79
2023/01/05 00:56:38;;;;;;;24.25;4.20;;;11.70;99.90;;;;;;5075332;28;20170;-79
2023/01/05 00:59:04;;;;;;;26.45;4.03;;;11.80;99.90;;;;;;5076415;28;20163;-80
2023/01/05 01:01:30;;;;;;;20.48;3.65;;;11.70;99.90;;;;;;5075067;28;20172;-79
2023/01/05 01:03:55;;;;;;;25.60;4.43;;;11.70;99.90;;;;;;5075942;28;20298;-79
2023/01/05 01:06:22;;;;;;;20.83;4.07;;;11.70;99.90;;;;;;5083044;28;20186;-79
2023/01/05 01:08:47;;;;;;;31.33;5.05;;;11.70;99.90;;;;;;5098406;28;20163;-79
2023/01/05 01:11:15;;;;;;;19.92;3.10;;;11.70;99.90;;;;;;5081500;28;20700;-79
2023/01/05 01:13:42;;;;;;;17.98;3.40;;;11.60;99.90;;;;;;5076537;28;20286;-79
2023/01/05 01:16:11;;;;;;;22.45;3.67;;;11.50;99.90;;;;;;5078473;28;20197;-80
2023/01/05 01:18:37;;;;;;;25.88;4.65;;;11.40;99.90;;;;;;5079430;28;20181;-79
2023/01/05 01:21:03;;;;;;;21.27;3.97;;;11.50;99.90;;;;;;5079603;28;20166;-81
2023/01/05 01:23:29;;;;;;;19.90;4.15;;;11.40;99.90;;;;;;5079095;28;20218;-78
2023/01/05 01:25:57;;;;;;;19.15;3.75;;;11.40;99.90;;;;;;5078429;28;20209;-79
2023/01/05 01:28:26;;;;;;;21.33;3.33;;;11.40;99.90;;;;;;5075030;28;20174;-79
2023/01/05 01:30:51;;;;;;;33.85;5.25;;;11.50;99.90;;;;;;5081880;28;20166;-79
2023/01/05 01:33:17;;;;;;;29.77;3.60;;;11.50;99.90;;;;;;5081088;28;20672;-79
2023/01/05 01:35:44;;;;;;;24.50;3.63;;;11.50;99.90;;;;;;5073912;28;20163;-79
2023/01/05 01:38:10;;;;;;;41.15;5.57;;;11.40;99.90;;;;;;5073934;28;20169;-79
2023/01/05 01:40:44;;;;;;;20.35;4.25;;;11.40;99.90;;;;;;5072898;28;20182;-79
2023/01/05 01:43:18;;;;;;;24.65;4.45;;;11.50;99.90;;;;;;5073728;28;20221;-79
2023/01/05 01:45:44;;;;;;;30.00;4.53;;;11.60;99.90;;;;;;5073924;28;20194;-81
2023/01/05 01:48:13;;;;;;;22.23;4.15;;;11.60;99.90;;;;;;5074553;28;20167;-80
2023/01/05 01:50:47;;;;;;;20.33;4.90;;;11.70;99.90;;;;;;5074273;28;20180;-79
2023/01/05 01:53:30;;;;;;;22.45;3.60;;;11.70;99.90;;;;;;5075027;28;20252;-88
2023/01/05 01:55:59;;;;;;;18.63;3.90;;;11.80;99.90;;;;;;5075248;28;20249;-87
2023/01/05 01:58:28;;;;;;;24.77;3.38;;;11.90;99.90;;;;;;5074454;28;20190;-88
2023/01/05 02:00:54;;;;;;;23.33;4.32;;;11.90;99.90;;;;;;5074797;28;20185;-87
2023/01/05 02:03:21;;;;;;;34.85;4.57;;;11.90;99.90;;;;;;5091033;28;20182;-86
2023/01/05 02:05:47;;;;;;;32.20;4.32;;;11.90;99.90;;;;;;5090998;28;20747;-87
2023/01/05 02:08:24;;;;;;;23.98;3.63;;;12.00;99.90;;;;;;5088019;28;20167;-80
2023/01/05 02:11:33;;;;;;;21.98;4.65;;;12.10;99.90;;;;;;5082931;28;20642;-89
2023/01/05 02:14:16;;;;;;;20.85;4.05;;;11.90;99.90;;;;;;5086132;28;20190;-81
2023/01/05 02:17:08;;;;;;;18.23;3.67;;;11.90;99.90;;;;;;5084056;28;20158;-80
2023/01/05 02:19:36;;;;;;;15.70;3.92;;;12.00;99.90;;;;;;5082848;28;20261;-81
2023/01/05 02:22:55;;;;;;;28.58;4.60;;;12.00;99.90;;;;;;5086514;28;20185;-80
2023/01/05 02:25:44;;;;;;;29.10;5.30;;;12.10;99.90;;;;;;5066918;28;20244;-82
2023/01/05 02:28:31;;;;;;;17.10;3.33;;;12.20;99.90;;;;;;5074087;28;20159;-85
2023/01/05 02:31:16;;;;;;;27.17;4.38;;;12.20;99.90;;;;;;5074091;28;20185;-84
2023/01/05 02:33:56;;;;;;;21.20;4.25;;;12.00;99.90;;;;;;5073801;28;20194;-83
2023/01/05 02:36:30;;;;;;;26.75;4.90;;;11.90;99.90;;;;;;5073944;28;20665;-87
2023/01/05 02:38:59;;;;;;;23.65;4.40;;;11.70;99.90;;;;;;5073522;28;20167;-86
2023/01/05 02:41:43;;;;;;;28.00;4.57;;;11.70;99.90;;;;;;5072275;28;20166;-90
2023/01/05 02:44:09;;;;;;;26.40;4.57;;;11.70;99.90;;;;;;5073512;28;20220;-82
2023/01/05 02:46:34;;;;;;;33.45;4.53;;;11.60;99.90;;;;;;5073704;28;20205;-88
2023/01/05 02:49:03;;;;;;;24.58;3.78;;;11.60;99.90;;;;;;5073589;28;20210;-84
2023/01/05 02:51:37;;;;;;;39.72;6.07;;;11.60;99.90;;;;;;5073150;28;20194;-80
2023/01/05 02:54:13;;;;;;;35.28;3.88;;;11.60;99.90;;;;;;5073298;28;20183;-80
2023/01/05 02:56:45;;;;;;;21.45;4.85;;;11.60;99.90;;;;;;5072855;28;20158;-80
2023/01/05 02:59:21;;;;;;;29.38;4.80;;;11.60;99.90;;;;;;5071321;28;20204;-79
2023/01/05 03:01:53;;;;;;;18.17;2.78;;;11.70;99.90;;;;;;5072617;28;20166;-80
2023/01/05 03:04:45;;;;;;;20.27;3.90;;;11.80;99.90;;;;;;5073113;28;20194;-85
2023/01/05 03:07:17;;;;;;;17.88;3.78;;;11.90;99.90;;;;;;5072941;28;20175;-80
2023/01/05 03:09:44;;;;;;;26.15;5.03;;;11.80;99.90;;;;;;5072523;28;20627;-80
2023/01/05 03:15:12;;;;;;;20.20;3.70;;;11.80;99.90;;;;;;5072407;28;20205;-80
2023/01/05 03:17:46;;;;;;;21.13;4.28;;;12.00;99.90;;;;;;5071144;28;20170;-80
2023/01/05 03:20:13;;;;;;;25.70;3.70;;;12.00;99.90;;;;;;5071084;28;20216;-79
2023/01/05 03:37:13;;;;;;;26.02;3.92;;;12.00;99.90;;;;;;5074300;28;20549;-80
2023/01/05 03:39:43;;;;;;;33.90;4.55;;;11.90;99.90;;;;;;5075594;28;20178;-79
2023/01/05 03:42:10;;;;;;;34.20;4.47;;;11.90;99.90;;;;;;5079823;28;20189;-79
2023/01/05 03:44:39;;;;;;;31.30;5.28;;;12.00;99.90;;;;;;5078414;28;20186;-79
2023/01/05 03:47:05;;;;;;;21.98;4.45;;;12.00;99.90;;;;;;5079662;28;20193;-84
2023/01/05 03:49:36;;;;;;;30.63;4.93;;;11.90;99.90;;;;;;5085590;28;20163;-81
2023/01/05 03:52:02;;;;;;;29.83;4.25;;;11.80;99.90;;;;;;5073795;28;20274;-83
2023/01/05 03:54:28;;;;;;;26.30;4.07;;;11.90;99.90;;;;;;5076219;28;20233;-86
2023/01/05 03:56:54;;;;;;;36.05;4.57;;;12.00;99.90;;;;;;5074302;28;20208;-82
2023/01/05 03:59:19;;;;;;;23.50;4.00;;;12.00;99.90;;;;;;5072082;28;20550;-80
2023/01/05 04:01:45;;;;;;;27.17;3.90;;;12.10;99.90;;;;;;5075589;28;20170;-80
2023/01/05 04:04:12;;;;;;;40.70;5.72;;;12.00;99.90;;;;;;5087550;28;20590;-79
2023/01/05 04:07:02;;;;;;;29.33;3.90;;;12.00;99.90;;;;;;5088736;28;20280;-80
2023/01/05 04:09:28;;;;;;;28.00;5.78;;;12.00;99.90;;;;;;5090331;28;20186;-79
2023/01/05 04:11:54;;;;;;;32.53;4.03;;;12.00;99.90;;;;;;5091567;28;20194;-81
2023/01/05 04:14:21;;;;;;;30.88;5.07;;;11.90;99.90;;;;;;5090982;28;20222;-80
2023/01/05 04:17:02;;;;;;;24.83;5.68;;;11.90;99.90;;;;;;5091616;28;20165;-81
2023/01/05 04:19:34;;;;;;;30.95;4.50;;;12.00;99.90;;;;;;5089860;28;20177;-78
2023/01/05 04:22:01;;;;;;;24.35;5.47;;;12.00;99.90;;;;;;5084581;28;20202;-79
2023/01/05 04:24:26;;;;;;;31.92;4.95;;;12.00;99.90;;;;;;5085399;28;20709;-81
2023/01/05 04:26:59;;;;;;;10.35;2.88;;;11.90;99.90;;;;;;5083563;28;20187;-78
2023/01/05 04:29:28;;;;;;;26.38;4.57;;;11.90;99.90;;;;;;5094078;28;20638;-79
2023/01/05 04:31:54;;;;;;;23.30;4.75;;;11.90;99.90;;;;;;5078048;28;20220;-80
2023/01/05 04:34:20;;;;;;;30.50;4.43;;;11.90;99.90;;;;;;5088586;28;20191;-80
2023/01/05 04:36:48;;;;;;;28.95;5.03;;;11.90;99.90;;;;;;5092690;28;20197;-80
2023/01/05 04:39:18;;;;;;;35.33;4.82;;;12.10;99.90;;;;;;5096508;28;20174;-82
2023/01/05 04:41:45;;;;;;;17.50;3.65;;;12.10;99.90;;;;;;5094020;28;20170;-81
2023/01/05 04:44:10;;;;;;;24.45;4.55;;;12.10;99.90;;;;;;5091969;28;20193;-81
2023/01/05 04:46:36;;;;;;;21.52;4.13;;;12.00;99.90;;;;;;5083192;28;20229;-81
2023/01/05 04:49:07;;;;;;;35.08;4.45;;;12.00;99.90;;;;;;5093898;28;20169;-80
2023/01/05 04:51:35;;;;;;;23.15;3.85;;;12.10;99.90;;;;;;5094603;28;20170;-79
2023/01/05 04:54:02;;;;;;;33.83;5.05;;;12.00;99.90;;;;;;5095036;28;20246;-81
2023/01/05 04:56:27;;;;;;;31.20;5.07;;;12.00;99.90;;;;;;5074487;28;20265;-79
2023/01/05 04:58:53;;;;;;;22.45;3.90;;;12.00;99.90;;;;;;5089574;28;20139;-79
2023/01/05 05:01:21;;;;;;;25.08;4.32;;;12.10;99.90;;;;;;5086996;28;20258;-78
2023/01/05 05:03:46;;;;;;;23.92;4.00;;;12.10;99.90;;;;;;5067142;28;20205;-80
2023/01/05 05:06:12;;;;;;;23.30;4.85;;;12.00;99.90;;;;;;5090021;28;20199;-81
2023/01/05 05:08:38;;;;;;;37.58;4.68;;;12.10;99.90;;;;;;5090175;28;20162;-81
2023/01/05 05:11:04;;;;;;;21.90;4.35;;;11.90;99.90;;;;;;5083892;28;20173;-81
2023/01/05 05:13:30;;;;;;;13.77;3.28;;;12.00;99.90;;;;;;5088455;28;20237;-79
2023/01/05 05:15:58;;;;;;;33.33;4.90;;;11.90;99.90;;;;;;5084573;28;20170;-80
2023/01/05 05:18:27;;;;;;;32.03;4.18;;;11.90;99.90;;;;;;5091015;28;20202;-81
2023/01/05 05:20:52;;;;;;;33.72;4.55;;;11.80;99.90;;;;;;5094914;28;20166;-79
2023/01/05 05:23:35;;;;;;;27.10;4.63;;;11.70;99.90;;;;;;5090593;28;20238;-81
2023/01/05 05:26:11;;;;;;;20.35;4.32;;;11.80;99.90;;;;;;5093714;28;20198;-80
2023/01/05 05:28:38;;;;;;;28.42;4.20;;;11.60;99.90;;;;;;5084379;28;20169;-80
2023/01/05 05:31:05;;;;;;;36.25;4.80;;;11.60;99.90;;;;;;5088571;28;20166;-79
2023/01/05 05:33:36;;;;;;;41.65;7.32;;;11.60;99.90;;;;;;5088099;28;20289;-79
2023/01/05 05:36:11;;;;;;;35.22;4.78;;;11.50;99.90;;;;;;5094151;28;20202;-80
2023/01/05 05:38:42;;;;;;;45.05;4.75;;;11.50;99.90;;;;;;5095658;28;20193;-81
2023/01/05 05:41:07;;;;;;;31.48;4.65;;;11.60;99.90;;;;;;5074000;28;20525;-81
2023/01/05 05:43:33;;;;;;;40.88;4.18;;;11.60;99.90;;;;;;5074179;28;20281;-81
2023/01/05 05:45:59;;;;;;;17.70;4.50;;;11.50;99.90;;;;;;5074103;28;20202;-80
2023/01/05 05:48:24;;;;;;;24.08;4.85;;;11.50;99.90;;;;;;5074665;28;20174;-84
2023/01/05 05:50:50;;;;;;;33.25;5.57;;;11.50;99.90;;;;;;5075121;28;20198;-85
2023/01/05 05:53:15;;;;;;;26.55;4.78;;;11.50;99.90;;;;;;5074824;28;20213;-83
2023/01/05 05:55:41;;;;;;;23.65;5.00;;;11.60;99.90;;;;;;5074853;28;20257;-88
2023/01/05 05:58:07;;;;;;;27.05;4.05;;;11.60;99.90;;;;;;5075284;28;20162;-87
2023/01/05 06:00:33;;;;;;;34.03;5.47;;;11.70;99.90;;;;;;5075205;28;20151;-86
2023/01/05 06:02:59;;;;;;;23.52;4.30;;;11.80;99.90;;;;;;5073758;28;20182;-88
2023/01/05 06:05:24;;;;;;;23.60;4.28;;;11.80;99.90;;;;;;5073592;28;20209;-82
2023/01/05 06:07:50;;;;;;;34.97;5.35;;;11.80;99.90;;;;;;5074938;28;20179;-80
2023/01/05 06:10:16;;;;;;;23.63;4.13;;;11.80;99.90;;;;;;5075017;28;20518;-87
2023/01/05 06:12:41;;;;;;;18.75;3.83;;;11.80;99.90;;;;;;5073441;28;20220;-89
2023/01/05 06:15:07;;;;;;;27.65;4.95;;;11.80;99.90;;;;;;5073264;28;20677;-88
2023/01/05 06:17:33;;;;;;;32.63;4.90;;;11.80;99.90;;;;;;5074335;28;20676;-88
2023/01/05 06:19:59;;;;;;;34.50;5.78;;;11.90;99.90;;;;;;5074756;28;20171;-86
2023/01/05 06:22:25;;;;;;;22.52;4.65;;;11.80;99.90;;;;;;5073991;28;20178;-80
2023/01/05 06:24:51;;;;;;;27.77;6.13;;;11.80;99.90;;;;;;5074177;28;20198;-80
2023/01/05 06:27:16;;;;;;;31.90;6.45;;;11.80;99.90;;;;;;5074543;28;20551;-87
2023/01/05 06:29:42;;;;;;;31.35;4.93;;;11.90;99.90;;;;;;5074105;28;20196;-86
2023/01/05 06:32:07;;;;;;;25.38;4.63;;;11.90;99.90;;;;;;5074338;28;20575;-89
2023/01/05 06:34:33;;;;;;;44.30;5.88;;;11.90;99.90;;;;;;5074540;28;20189;-88
2023/01/05 06:36:59;;;;;;;34.08;5.88;;;11.90;99.90;;;;;;5074276;28;20201;-82
2023/01/05 06:39:24;;;;;;;35.40;4.20;;;11.90;99.90;;;;;;5073018;28;20177;-88
2023/01/05 06:41:50;;;;;;;27.52;4.82;;;11.80;99.90;;;;;;5074163;28;20522;-87
2023/01/05 06:44:15;;;;;;;28.15;3.75;;;11.70;99.90;;;;;;5073776;28;20217;-87
2023/01/05 06:46:41;;;;;;;22.70;3.83;;;11.70;99.90;;;;;;5072432;28;20213;-88
2023/01/05 06:49:10;;;;;;;24.05;5.10;;;11.60;99.90;;;;;;5074268;28;20267;-87
2023/01/05 06:51:36;;;;;;;32.00;4.95;;;11.70;99.90;;;;;;5077024;28;20169;-82
2023/01/05 06:54:02;;;;;;;23.38;4.25;;;11.70;99.90;;;;;;5074005;28;20182;-86
2023/01/05 06:56:27;;;;;;;17.30;3.90;;;11.70;99.90;;;;;;5074240;28;20211;-88
2023/01/05 06:58:53;;;;;;;35.22;4.78;;;11.70;99.90;;;;;;5074353;28;20202;-83
2023/01/05 07:01:18;;;;;;;26.55;4.85;;;11.70;99.90;;;;;;5074485;28;20233;-88
2023/01/05 07:03:44;;;;;;;21.42;4.78;;;11.70;99.90;;;;;;5074344;28;20186;-87
2023/01/05 07:06:13;;;;;;;31.25;5.72;;;11.70;99.90;;;;;;5078587;28;20293;-85
2023/01/05 07:08:39;;;;;;;30.55;5.15;;;11.70;99.90;;;;;;5074434;28;20260;-89
2023/01/05 07:11:04;;;;;;;32.45;5.38;;;11.70;99.90;;;;;;5074226;28;20200;-87
2023/01/05 07:13:30;;;;;;;25.52;4.78;;;11.70;99.90;;;;;;5073804;28;20183;-79
2023/01/05 07:15:56;;;;;;;22.45;5.05;;;11.70;99.90;;;;;;5071885;28;20194;-84
2023/01/05 07:18:21;;;;;;;26.45;4.40;;;11.70;99.90;;;;;;5072723;28;20167;-81
2023/01/05 07:20:47;;;;;;;26.02;3.78;;;11.70;99.90;;;;;;5072544;28;20475;-79
2023/01/05 07:23:12;;;;;;;26.77;5.07;;;11.60;99.90;;;;;;5071483;28;20268;-81
2023/01/05 07:25:38;;;;;;;25.73;4.15;;;11.60;99.90;;;;;;5073448;28;20198;-81
2023/01/05 07:28:04;;;;;;;26.95;4.72;;;11.50;99.90;;;;;;5079674;28;20177;-80
2023/01/05 07:30:46;;;;;;;32.60;5.20;;;11.50;99.90;;;;;;5081944;28;20155;-80
2023/01/05 07:33:11;;;;;;;21.83;4.20;;;11.40;99.90;;;;;;5071336;28;20670;-84
2023/01/05 07:35:37;;;;;;;24.30;4.72;;;11.40;99.90;;;;;;5074523;28;20163;-80
2023/01/05 07:38:03;;;;;;;32.72;5.32;;;11.40;99.90;;;;;;5077669;28;20278;-80
2023/01/05 07:40:28;;;;;;;20.83;3.88;;;11.30;99.90;;;;;;5083980;28;20170;-81
2023/01/05 07:42:54;;;;;;;27.50;4.47;;;11.30;99.90;;;;;;5085913;28;20190;-88
2023/01/05 07:45:20;;;;;;;24.40;4.68;;;11.40;99.90;;;;;;5072591;28;20277;-88
2023/01/05 07:47:45;;;;;;;28.45;5.45;;;11.40;99.90;;;;;;5070663;28;20198;-86
2023/01/05 07:50:12;;;;;;;27.60;4.72;;;11.50;99.90;;;;;;5071639;28;20653;-81
2023/01/05 07:52:38;;;;;;;24.15;4.35;;;11.40;99.90;;;;;;5072783;28;20174;-87
2023/01/05 07:55:04;;;;;;;33.83;5.13;;;11.40;99.90;;;;;;5073061;28;20187;-86
2023/01/05 07:57:30;;;;;;;30.95;5.10;;;11.50;99.90;;;;;;5073904;28;20249;-83
2023/01/05 07:59:56;;;;;;;22.70;5.22;;;11.60;99.90;;;;;;5076849;28;20529;-84
2023/01/05 08:02:21;;;;;;;14.35;4.05;;;11.60;99.90;;;;;;5076811;28;20171;-84
2023/01/05 08:04:47;;;;;;;25.27;4.38;;;11.50;99.90;;;;;;5076475;28;20186;-83
2023/01/05 08:07:14;;;;;;;22.58;4.10;;;11.70;99.90;;;;;;5076632;28;20174;-83
2023/01/05 08:12:24;;;;;;;17.48;4.05;;;11.90;99.90;;;;;;5077596;28;20194;-83
2023/01/05 08:14:50;;;;;;;15.43;3.55;;;11.90;99.90;;;;;;5075384;28;20186;-91
2023/01/05 08:17:16;;;;;;;17.45;4.30;;;11.80;99.90;;;;;;5075474;28;20182;-82
2023/01/05 08:19:41;;;;;;;19.50;3.75;;;11.90;99.90;;;;;;5076385;28;20163;-88
2023/01/05 08:22:07;;;;;;;30.92;4.60;;;12.00;99.90;;;;;;5076570;28;20642;-90
2023/01/05 08:24:32;;;;;;;18.15;4.03;;;12.00;99.90;;;;;;5077002;28;20199;-82
2023/01/05 08:26:58;;;;;;;22.40;4.35;;;11.90;99.90;;;;;;5075692;28;20260;-84
2023/01/05 08:29:23;;;;;;;26.88;5.07;;;12.00;99.90;;;;;;5074582;28;20174;-90
2023/01/05 08:31:49;;;;;;;27.10;4.13;;;12.00;99.90;;;;;;5075864;28;20163;-85
2023/01/05 08:34:15;;;;;;;23.00;4.50;;;12.00;99.90;;;;;;5074367;28;20198;-89
2023/01/05 08:36:40;;;;;;;21.77;4.20;;;12.10;99.90;;;;;;5076244;28;20198;-92
2023/01/05 08:39:09;;;;;;;28.17;4.32;;;12.00;99.90;;;;;;5076047;28;20228;-88
2023/01/05 08:41:37;;;;;;;25.42;4.85;;;12.30;99.90;;;;;;5076961;28;20158;-91
2023/01/05 08:44:05;;;;;;;29.00;5.85;;;12.40;99.90;;;;;;5077205;28;20666;-90
2023/01/05 08:46:34;;;;;;;43.63;7.00;;;12.30;99.90;;;;;;5077181;28;20198;-92
2023/01/05 08:49:03;;;;;;;26.83;5.18;;;12.50;99.90;;;;;;5077042;28;20178;-90
2023/01/05 08:51:29;;;;;;;35.35;5.72;;;12.50;99.90;;;;;;5076357;28;20173;-91
2023/01/05 08:53:55;;;;;;;25.40;5.13;;;12.40;99.90;;;;;;5077208;28;20193;-91
2023/01/05 08:56:23;;;;;;;30.05;4.03;;;12.40;99.90;;;;;;5080438;28;20189;-91
2023/01/05 08:58:50;;;;;;;25.20;4.65;;;12.40;99.90;;;;;;5077003;28;20170;-87
2023/01/05 09:01:20;;;;;;;34.40;4.72;;;12.20;99.90;;;;;;5078653;28;20553;-94
2023/01/05 09:03:46;;;;;;;24.60;3.70;;;12.10;99.90;;;;;;5070486;28;20194;-89
2023/01/05 09:06:13;;;;;;;27.92;5.20;;;12.10;99.90;;;;;;5095487;28;20240;-95
2023/01/05 09:08:40;;;;;;;28.30;4.55;;;12.00;99.90;;;;;;5075736;28;20637;-90
2023/01/05 09:11:10;;;;;;;32.97;6.10;;;12.00;99.90;;;;;;5076801;28;20200;-94
2023/01/05 09:13:37;;;;;;;27.35;3.92;;;12.00;99.90;;;;;;5077002;28;20678;-92
2023/01/05 09:16:08;;;;;;;35.70;5.43;;;12.00;99.90;;;;;;5076480;28;20170;-81
2023/01/05 09:18:34;;;;;;;18.08;5.10;;;12.00;99.90;;;;;;5076491;28;20170;-92
2023/01/05 09:21:00;;;;;;;35.47;4.78;;;12.00;99.90;;;;;;5076595;28;20254;-93
2023/01/05 09:23:26;;;;;;;36.10;5.72;;;12.00;99.90;;;;;;5080943;28;20210;-95
2023/01/05 09:25:51;;;;;;;21.23;4.68;;;12.10;99.90;;;;;;5080988;28;20262;-91
2023/01/05 09:28:17;;;;;;;27.65;4.78;;;12.20;99.90;;;;;;5086091;28;20611;-94
2023/01/05 09:30:42;;;;;;;32.90;5.35;;;12.30;99.90;;;;;;5061789;28;20176;-88
2023/01/05 09:33:08;;;;;;;21.17;4.45;;;12.30;99.90;;;;;;5075656;28;20194;-93
2023/01/05 09:35:34;;;;;;;19.23;3.60;;;12.50;99.90;;;;;;5075330;28;20178;-85
2023/01/05 09:37:59;;;;;;;27.92;4.25;;;12.60;99.90;;;;;;5075553;28;20171;-92
2023/01/05 09:40:26;;;;;;;26.38;6.47;;;12.40;99.90;;;;;;5076003;28;20257;-89
2023/01/05 09:42:53;;;;;;;32.22;5.45;;;12.40;99.90;;;;;;5076368;28;20265;-92
2023/01/05 09:45:25;;;;;;;27.52;5.53;;;12.30;99.90;;;;;;5076681;28;20641;-91
2023/01/05 09:47:54;;;;;;;30.50;4.88;;;12.20;99.90;;;;;;5075615;28;20573;-89
2023/01/05 09:50:23;;;;;;;33.10;4.57;;;12.40;99.90;;;;;;5076716;28;20166;-92
2023/01/05 09:52:56;;;;;;;48.92;6.10;;;12.40;99.90;;;;;;5077666;28;20642;-94
2023/01/05 09:55:26;;;;;;;26.58;5.60;;;12.40;99.90;;;;;;5076931;28;20170;-83
2023/01/05 09:57:56;;;;;;;20.10;5.47;;;12.30;99.90;;;;;;5076974;28;20166;-93
2023/01/05 10:00:24;;;;;;;40.25;5.57;;;12.30;99.90;;;;;;5077854;28;20190;-93
2023/01/05 10:02:57;;;;;;;30.80;5.22;;;12.30;99.90;;;;;;5076879;28;20162;-89
2023/01/05 10:05:25;;;;;;;23.85;4.55;;;12.30;99.90;;;;;;5079167;28;20202;-84
2023/01/05 10:07:57;;;;;;;25.67;5.57;;;12.40;99.90;;;;;;5078023;28;20163;-94
2023/01/05 10:10:45;;;;;;;28.83;5.97;;;12.40;99.90;;;;;;5074790;28;20178;-87
2023/01/05 10:13:27;;;;;;;28.70;4.68;;;12.50;99.90;;;;;;5074755;28;20193;-86
2023/01/05 10:15:54;;;;;;;27.65;4.57;;;12.60;99.90;;;;;;5075618;28;20226;-95
2023/01/05 10:18:29;;;;;;;25.13;3.95;;;12.60;99.90;;;;;;5074387;28;20158;-93
2023/01/05 10:20:57;;;;;;;23.95;5.32;;;12.60;99.90;;;;;;5072346;28;20162;-80
2023/01/05 10:23:50;;;;;;;29.70;3.95;;;12.60;99.90;;;;;;5077278;28;20193;-85
2023/01/05 10:26:53;;;;;;;24.90;4.18;;;12.70;99.90;;;;;;5076524;28;20267;-92
2023/01/05 10:29:41;;;;;;;22.13;4.10;;;12.80;99.90;;;;;;5076648;28;20176;-87
2023/01/05 10:32:27;;;;;;;16.55;4.00;;;13.00;99.90;;;;;;5078530;28;20159;-84
2023/01/05 10:35:05;;;;;;;16.75;2.80;;;13.00;99.90;;;;;;5076206;28;20198;-81
2023/01/05 10:37:44;;;;;;;18.52;3.85;;;12.90;99.90;;;;;;5074736;28;20184;-79
2023/01/05 10:40:17;;;;;;;20.58;4.15;;;12.70;99.90;;;;;;5072162;28;20186;-84
2023/01/05 10:42:58;;;;;;;26.17;4.63;;;12.60;99.90;;;;;;5072765;28;20186;-81
2023/01/05 10:45:28;;;;;;;22.00;4.47;;;12.50;99.90;;;;;;5092692;28;20200;-92
2023/01/05 10:47:54;;;;;;;25.48;4.70;;;12.50;99.90;;;;;;5092653;28;20176;-92
2023/01/05 10:50:42;;;;;;;22.08;4.68;;;12.40;99.90;;;;;;5082089;28;20261;-90
2023/01/05 10:53:17;;;;;;;30.23;4.68;;;12.50;99.90;;;;;;5072936;28;20190;-84
2023/01/05 10:55:55;;;;;;;25.65;3.53;;;12.70;99.90;;;;;;5054471;28;20193;-82
2023/01/05 10:58:26;;;;;;;24.27;5.13;;;12.70;99.90;;;;;;5070112;28;20253;-90
2023/01/05 11:00:56;;;;;;;22.92;5.00;;;12.60;99.90;;;;;;5080025;28;20677;-90
2023/01/05 11:03:28;;;;;;;15.07;4.28;;;12.60;99.90;;;;;;5073999;28;20258;-81
2023/01/05 11:05:55;;;;;;;27.42;5.38;;;12.70;99.90;;;;;;5076212;28;20289;-83
2023/01/05 11:08:24;;;;;;;25.83;4.10;;;12.70;99.90;;;;;;5080579;28;20249;-82
2023/01/05 11:11:00;;;;;;;33.80;4.60;;;12.70;99.90;;;;;;5060254;28;20168;-81
2023/01/05 11:13:25;;;;;;;28.42;5.40;;;12.90;99.90;;;;;;5064878;28;20280;-91
2023/01/05 11:15:59;;;;;;;26.00;4.60;;;13.00;99.90;;;;;;5075683;28;20234;-82
2023/01/05 11:18:31;;;;;;;21.80;4.68;;;13.10;99.90;;;;;;5069662;28;20162;-82
2023/01/05 11:21:15;;;;;;;21.02;4.22;;;13.00;99.90;;;;;;5071836;28;20297;-83
2023/01/05 11:23:44;;;;;;;17.73;3.80;;;12.90;99.90;;;;;;5072729;28;20189;-82
2023/01/05 11:26:16;;;;;;;31.48;5.10;;;13.10;99.90;;;;;;5072251;28;20202;-91
2023/01/05 11:29:08;;;;;;;20.58;3.60;;;13.30;99.90;;;;;;5072304;28;20289;-81
2023/01/05 11:31:57;;;;;;;46.47;5.50;;;13.30;99.90;;;;;;5071828;28;20174;-80
2023/01/05 11:34:45;;;;;;;32.85;5.28;;;13.30;99.90;;;;;;5067368;28;20218;-83
2023/01/05 11:37:11;;;;;;;32.40;8.27;;;13.50;99.90;;;;;;5071251;28;20175;-80
2023/01/05 11:39:45;;;;;;;29.67;4.55;;;13.60;99.90;;;;;;5072501;28;20162;-80
2023/01/05 11:42:11;;;;;;;27.88;5.53;;;13.60;99.90;;;;;;5072973;28;20182;-82
2023/01/05 11:44:38;;;;;;;36.80;8.25;;;13.60;99.90;;;;;;5067892;28;20546;-79
2023/01/05 11:47:05;;;;;;;27.35;4.95;;;13.70;99.90;;;;;;5073270;28;20282;-82
2023/01/05 11:49:31;;;;;;;16.52;4.35;;;13.60;99.90;;;;;;5071322;28;20193;-85
2023/01/05 11:51:57;;;;;;;25.17;5.15;;;13.80;99.90;;;;;;5072210;28;20174;-90
2023/01/05 11:54:33;;;;;;;28.40;5.20;;;13.90;99.90;;;;;;5072923;28;20678;-89
2023/01/05 11:57:12;;;;;;;19.10;4.38;;;13.80;99.90;;;;;;5073321;28;20174;-89
2023/01/05 11:59:38;;;;;;;29.00;4.95;;;13.70;99.90;;;;;;5072358;28;20533;-91
2023/01/05 12:02:33;;;;;;;27.17;4.72;;;13.60;99.90;;;;;;5074161;28;20179;-91
2023/01/05 12:05:20;;;;;;;19.05;4.20;;;13.60;99.90;;;;;;5073233;28;20222;-91
2023/01/05 12:07:55;;;;;;;31.52;4.57;;;13.90;99.90;;;;;;5054967;28;20179;-86
2023/01/05 12:10:27;;;;;;;24.60;4.95;;;14.00;99.90;;;;;;5069965;28;20181;-88
2023/01/05 12:13:21;;;;;;;30.70;4.75;;;14.20;99.90;;;;;;5069350;28;20808;-86
2023/01/05 12:16:06;;;;;;;26.40;5.60;;;14.20;99.90;;;;;;5058936;28;20245;-88
2023/01/05 12:18:46;;;;;;;31.70;4.80;;;14.30;99.90;;;;;;5053601;28;20235;-88
2023/01/05 12:21:17;;;;;;;31.95;4.88;;;14.20;99.90;;;;;;5053324;28;20527;-82
2023/01/05 12:24:22;;;;;;;24.45;4.63;;;14.30;99.90;;;;;;5053198;28;20194;-86
2023/01/05 12:27:07;;;;;;;35.42;5.93;;;14.40;99.90;;;;;;5070436;28;20210;-81
2023/01/05 12:29:50;;;;;;;22.08;3.95;;;14.40;99.90;;;;;;5074582;28;20265;-88
2023/01/05 12:32:36;;;;;;;37.92;6.78;;;14.60;99.90;;;;;;5075033;28;20527;-81
2023/01/05 12:35:39;;;;;;;36.45;5.88;;;14.70;99.90;;;;;;5072706;28;20222;-90
2023/01/05 12:38:10;;;;;;;33.75;5.35;;;14.60;99.90;;;;;;5073894;28;20174;-91
2023/01/05 12:40:51;;;;;;;22.48;5.75;;;14.60;99.90;;;;;;5071958;28;20183;-88
2023/01/05 12:43:40;;;;;;;31.75;5.85;;;14.50;99.90;;;;;;5072676;28;20288;-89
2023/01/05 12:46:17;;;;;;;26.83;5.95;;;14.30;99.90;;;;;;5076664;28;20343;-85
2023/01/05 12:48:54;;;;;;;24.73;5.70;;;14.30;99.90;;;;;;5076897;28;20170;-83
2023/01/05 12:51:34;;;;;;;32.50;5.60;;;14.40;99.90;;;;;;5084109;28;20177;-85
2023/01/05 12:54:35;;;;;;;25.00;5.57;;;14.20;99.90;;;;;;5095053;28;20199;-81
2023/01/05 12:57:09;;;;;;;28.13;5.30;;;14.20;99.90;;;;;;5079693;28;20186;-89
2023/01/05 12:59:46;;;;;;;25.20;5.97;;;14.30;99.90;;;;;;5077097;28;20560;-85
2023/01/05 13:02:21;;;;;;;32.13;5.90;;;14.20;99.90;;;;;;5076589;28;20239;-87
2023/01/05 13:05:00;;;;;;;37.47;6.43;;;14.00;99.90;;;;;;5074516;28;20286;-90
2023/01/05 13:07:32;;;;;;;27.25;5.68;;;13.90;99.90;;;;;;5074092;28;20189;-89
2023/01/05 13:10:05;;;;;;;27.90;5.60;;;14.00;99.90;;;;;;5075010;28;20174;-88
2023/01/05 13:12:33;;;;;;;33.58;5.72;;;14.00;99.90;;;;;;5073499;28;20176;-91
2023/01/05 13:15:18;;;;;;;29.58;4.63;;;14.10;99.90;;;;;;5081493;28;20182;-85
2023/01/05 13:17:47;;;;;;;30.20;5.57;;;14.10;99.90;;;;;;5082293;28;20178;-87
2023/01/05 13:20:41;;;;;;;18.85;4.93;;;14.30;99.90;;;;;;5077063;28;20241;-86
2023/01/05 13:23:12;;;;;;;34.40;4.85;;;14.30;99.90;;;;;;5074889;28;20273;-88
2023/01/05 13:25:50;;;;;;;50.22;5.63;;;14.00;99.90;;;;;;5074219;28;20202;-83